You are not logged in, Click here to log in
ICAO: VQPR Country: 不丹離帕羅市中心約6公里
Latitude: 27.4032 Longitude: 89.4246
Total Arrivals: 10 Total Departures: 8
Latest Arrival: KB4013 (VNKT-VQPR)Arthur. Kung Latest Departure: KB400 (VQPR-VNKT)Arthur. Kung
Scenery:
METAR : VQPR 241000Z 15017KT 9999 SCT030 BKN090 23/10 Q1014

帕羅機場 PBH